Nearby METAR Reports

 

KSJC - San Jose, California, USA
Distance from station: NE 9mi, 14km
Updated: Sun, 20-Jan-2019 6:11pm EST
Rain, Mist, Mostly cloudy
Rain, Mist, Mostly cloudy
 Wind from WNW
Wind: WNW 16 mph , 26 km/h, Gust: 25 mph , 41 km/h
Temperature: 55°F , 13°C
Dew Point: 54°F , 12°C
Humidity: 94%
Barometer: 30.01 inHg , 1016.3 hPa
Summary: Rain, Mist
Clouds: Mostly cloudy
Visibility: 5 miles , 8 km
Cloud details: Few Clouds 100 ft
Partly cloudy 2300 ft
Mostly cloudy 3000 ft
2019/01/20 23:11 KSJC 202311Z 29014G22KT 5SM RA BR FEW001 SCT023 BKN030 13/12 A3001 RMK AO2 WSHFT 2245 CB DSNT NE-E P0002 T01330117 $
KNUQ - Moffett Nas/Mtn, California, USA
Distance from station: N 9mi, 14km
Updated: Sun, 20-Jan-2019 5:56pm EST
Light rain, Overcast
Light rain, Overcast
 Wind from W
Wind: W 8 mph , 13 km/h
Temperature: 57°F , 14°C
Dew Point: 52°F , 11°C
Humidity: 82%
Barometer: 30.03 inHg , 1016.9 hPa
Summary: Light rain
Clouds: Overcast
Visibility: 7 miles , 11 km
Cloud details: Mostly cloudy 1500 ft
Mostly cloudy 2200 ft
Overcast 2700 ft
2019/01/20 22:56 KNUQ 202256Z 27007KT 7SM -RA BKN015 BKN022 OVC027 14/11 A3003 RMK AO2 RAB22 SLP170 P0002 T01390111
 
KPAO - Palo Alto, California, USA
Distance from station: NNW 14mi, 23km
Updated: Sun, 20-Jan-2019 6:47pm EST
Overcast
Overcast
 Wind from W
Wind: W 18 mph , 30 km/h
Temperature: 57°F , 14°C
Dew Point: 52°F , 11°C
Humidity: 82%
Barometer: 30.02 inHg , 1016.6 hPa
Clouds: Overcast
Visibility: 10 miles , 16 km
Cloud details: Partly cloudy 1300 ft
Mostly cloudy 2000 ft
Overcast 3200 ft
2019/01/20 23:47 KPAO 202347Z 28016KT 10SM SCT013 BKN020 OVC032 14/11 A3002
KRHV - San Jose/Reid, California, USA
Distance from station: ENE 12mi, 19km
Updated: Sun, 20-Jan-2019 5:50pm EST
Mostly cloudy
Mostly cloudy
 Wind from WSW
Wind: WSW 16 mph , 26 km/h
Temperature: 63°F , 17°C
Dew Point: 52°F , 11°C
Humidity: 68%
Barometer: 29.98 inHg , 1015.2 hPa
Clouds: Mostly cloudy
Visibility: 10 miles , 16 km
Cloud details: Mostly cloudy 2500 ft
Mostly cloudy 3500 ft
2019/01/20 22:50 KRHV 202250Z 25014KT 10SM BKN025 BKN035 17/11 A2998
 
KOAK - Oakland, California, USA
Distance from station: NNW 31mi, 50km
Updated: Sun, 20-Jan-2019 5:53pm EST
Overcast
Overcast
 Wind from W
Wind: W 16 mph , 26 km/h
Temperature: 57°F , 14°C
Dew Point: 52°F , 11°C
Humidity: 82%
Barometer: 30.01 inHg , 1016.3 hPa
Clouds: Overcast
Visibility: 10 miles , 16 km
Cloud details: Few Clouds 800 ft
Mostly cloudy 3500 ft
Overcast 6000 ft
2019/01/20 22:53 KOAK 202253Z 26014KT 10SM FEW008 BKN035 OVC060 14/11 A3001 RMK AO2 SLP161 T01390111
KSQL - San Carlos Airpo, California, USA
Distance from station: NW 21mi, 34km
Updated: Sun, 20-Jan-2019 5:47pm EST
Mostly cloudy
Mostly cloudy
 Wind from WSW
Wind: WSW 10 mph , 17 km/h
Temperature: 57°F , 14°C
Dew Point: 52°F , 11°C
Humidity: 82%
Barometer: 30.02 inHg , 1016.6 hPa
Clouds: Mostly cloudy
Visibility: 4 miles , 6 km
Cloud details: Partly cloudy 2000 ft
Mostly cloudy 2800 ft
Mostly cloudy 3500 ft
2019/01/20 22:47 KSQL 202247Z 25009KT 4SM SCT020 BKN028 BKN035 14/11 A3002
 
KSFO - San Francisco, California, USA
Distance from station: NW 30mi, 49km
Updated: Sun, 20-Jan-2019 5:56pm EST
Mostly cloudy
Mostly cloudy
 Wind from WSW
Wind: WSW 17 mph , 28 km/h, Gust: 25 mph , 41 km/h
Temperature: 57°F , 14°C
Dew Point: 48°F , 9°C
Humidity: 72%
Barometer: 29.99 inHg , 1015.6 hPa
Clouds: Mostly cloudy
Visibility: 8 miles , 13 km
Cloud details: Few Clouds 800 ft
Partly cloudy 1400 ft
Mostly cloudy 4400 ft
Mostly cloudy 15000 ft
2019/01/20 22:56 KSFO 202256Z 25015G22KT 8SM FEW008 SCT014 BKN044 BKN150 14/09 A2999 RMK AO2 PK WND 26029/2216 SLP154 T01440094 $
KE16 - San Martin, California, USA
Distance from station: ESE 27mi, 43km
Updated: Sun, 20-Jan-2019 6:10pm EST
Overcast
Overcast
 Wind from SW
Wind: SW 6 mph , 9 km/h
Temperature: 57°F , 14°C
Dew Point: 54°F , 12°C
Humidity: 88%
Barometer: 30.04 inHg , 1017.3 hPa
Clouds: Overcast
Visibility: 10 miles , 16 km
Cloud details: Partly cloudy 2100 ft
Mostly cloudy 2600 ft
Overcast 3300 ft
2019/01/20 23:10 KE16 202310Z AUTO 22005KT 10SM SCT021 BKN026 OVC033 14/12 A3004 RMK AO2 PWINO PNO
 
KWVI - Watsonville, California, USA
Distance from station: SSE 27mi, 44km
Updated: Sun, 20-Jan-2019 5:53pm EST
Overcast
Overcast
 Wind from W
Wind: W 13 mph , 20 km/h, Gust: 21 mph , 33 km/h
Temperature: 55°F , 13°C
Dew Point: 55°F , 13°C
Humidity: 100%
Barometer: 30.04 inHg , 1017.3 hPa
Clouds: Overcast
Visibility: 10 miles , 16 km
Cloud details: Mostly cloudy 700 ft
Mostly cloudy 1400 ft
Overcast 2200 ft
2019/01/20 22:53 KWVI 202253Z AUTO 27011G18KT 10SM BKN007 BKN014 OVC022 13/13 A3004 RMK AO2 SLP170 T01330128
KHAF - Half Moon Bay, California, USA
Distance from station: WNW 31mi, 50km
Updated: Sun, 20-Jan-2019 6:15pm EST
Mist, Mostly cloudy
Mist, Mostly cloudy
 Wind from W
Wind: W 9 mph , 15 km/h, Gust: 18 mph , 30 km/h
Temperature: 55°F , 13°C
Dew Point: 54°F , 12°C
Humidity: 94%
Barometer: 30.03 inHg , 1016.9 hPa
Summary: Mist
Clouds: Mostly cloudy
Visibility: 4 miles , 6 km
Cloud details: Partly cloudy 800 ft
Mostly cloudy 1300 ft
Mostly cloudy 8000 ft
2019/01/20 23:15 KHAF 202315Z AUTO 26008G16KT 4SM BR SCT008 BKN013 BKN080 13/12 A3003 RMK AO2
 
KHWD - Hayward, California, USA
Distance from station: N 28mi, 44km
Updated: Sun, 20-Jan-2019 5:54pm EST
Overcast
Overcast
 Wind from W
Wind: W 15 mph , 24 km/h
Temperature: 57°F , 14°C
Dew Point: 54°F , 12°C
Humidity: 88%
Barometer: 30.01 inHg , 1016.3 hPa
Clouds: Overcast
Visibility: 10 miles , 16 km
Cloud details: Few Clouds 1900 ft
Mostly cloudy 2500 ft
Overcast 3600 ft
2019/01/20 22:54 KHWD 202254Z 27013KT 10SM FEW019 BKN025 OVC036 14/12 A3001 RMK AO2 RAE2155 SLP172 P0000 T01440117
KLVK - Livermore, California, USA
Distance from station: NNE 31mi, 51km
Updated: Sun, 20-Jan-2019 6:13pm EST
Light rain, Mist, Overcast
Light rain, Mist, Overcast
 Wind from W
Wind: W 18 mph , 30 km/h, Gust: 25 mph , 41 km/h
Temperature: 55°F , 13°C
Dew Point: 52°F , 11°C
Humidity: 88%
Barometer: 29.98 inHg , 1015.2 hPa
Summary: Light rain, Mist
Clouds: Overcast
Visibility: 6 miles , 10 km
Cloud details: Mostly cloudy 1300 ft
Overcast 2200 ft
2019/01/20 23:13 KLVK 202313Z 27016G22KT 6SM -RA BR BKN013 OVC022 13/11 A2998 RMK AO2 P0001 T01280111 $